createdAt,value
2022-11-28T00:01:18.797Z,2.40
2022-11-28T00:03:46.819Z,3.80
2022-11-28T00:06:16.351Z,3.58
2022-11-28T00:08:44.231Z,3.75
2022-11-28T00:11:12.777Z,2.70
2022-11-28T00:13:40.866Z,3.42
2022-11-28T00:16:09.368Z,3.28
2022-11-28T00:18:37.217Z,2.83
2022-11-28T00:21:06.109Z,3.55
2022-11-28T00:23:35.284Z,2.85
2022-11-28T00:26:04.081Z,3.10
2022-11-28T00:28:31.722Z,4.05
2022-11-28T00:30:59.444Z,3.88
2022-11-28T00:33:27.196Z,3.22
2022-11-28T00:35:59.337Z,3.03
2022-11-28T00:38:27.009Z,3.53
2022-11-28T00:41:01.151Z,3.72
2022-11-28T00:43:29.256Z,3.20
2022-11-28T00:45:57.290Z,3.35
2022-11-28T00:48:25.233Z,3.50
2022-11-28T00:50:52.903Z,3.70
2022-11-28T00:53:20.607Z,3.63
2022-11-28T00:55:48.212Z,3.70
2022-11-28T00:58:17.244Z,3.85
2022-11-28T01:00:44.958Z,3.70
2022-11-28T01:03:12.595Z,3.33
2022-11-28T01:05:43.711Z,3.85
2022-11-28T01:08:11.726Z,3.85
2022-11-28T01:10:40.832Z,3.78
2022-11-28T01:13:08.533Z,4.00
2022-11-28T01:15:37.962Z,3.83
2022-11-28T01:18:05.800Z,4.53
2022-11-28T01:20:33.463Z,3.80
2022-11-28T01:23:01.313Z,4.22
2022-11-28T01:25:29.122Z,4.32
2022-11-28T01:27:56.775Z,4.22
2022-11-28T01:30:24.481Z,4.57
2022-11-28T01:32:53.768Z,4.80
2022-11-28T01:35:21.535Z,3.88
2022-11-28T01:37:49.131Z,4.75
2022-11-28T01:40:16.775Z,4.82
2022-11-28T01:42:44.543Z,5.07
2022-11-28T01:45:14.933Z,4.45
2022-11-28T01:47:42.725Z,4.35
2022-11-28T01:50:12.304Z,5.78
2022-11-28T01:52:40.900Z,5.03
2022-11-28T01:55:09.184Z,4.32
2022-11-28T01:57:36.892Z,4.60
2022-11-28T02:00:06.778Z,4.65
2022-11-28T02:02:35.832Z,5.03
2022-11-28T02:05:03.861Z,4.28
2022-11-28T02:07:33.514Z,5.38
2022-11-28T02:10:01.770Z,4.22
2022-11-28T02:12:34.482Z,3.97
2022-11-28T02:15:20.008Z,3.92
2022-11-28T02:17:56.864Z,4.25
2022-11-28T02:20:30.544Z,4.20
2022-11-28T02:23:05.064Z,3.88
2022-11-28T02:25:46.912Z,3.53
2022-11-28T02:28:36.817Z,4.20
2022-11-28T02:31:11.729Z,4.00
2022-11-28T02:33:42.056Z,4.15
2022-11-28T02:36:13.451Z,3.67
2022-11-28T02:38:52.783Z,4.20
2022-11-28T02:41:25.516Z,4.47
2022-11-28T02:43:58.376Z,4.03
2022-11-28T02:46:31.164Z,4.00
2022-11-28T02:49:02.955Z,4.50
2022-11-28T02:51:33.184Z,5.00
2022-11-28T02:54:02.006Z,4.97
2022-11-28T02:56:29.792Z,4.97
2022-11-28T02:58:57.440Z,4.43
2022-11-28T03:01:28.792Z,5.43
2022-11-28T03:04:04.029Z,5.72
2022-11-28T03:06:40.442Z,5.60
2022-11-28T03:09:18.696Z,5.40
2022-11-28T03:11:50.842Z,7.07
2022-11-28T03:14:25.143Z,5.72
2022-11-28T03:16:57.746Z,7.25
2022-11-28T03:19:28.994Z,6.90
2022-11-28T03:22:00.029Z,7.35
2022-11-28T03:24:33.985Z,7.70
2022-11-28T03:27:04.321Z,8.65
2022-11-28T03:29:32.938Z,9.25
2022-11-28T03:32:02.171Z,8.85
2022-11-28T03:34:33.493Z,9.43
2022-11-28T03:37:02.523Z,8.93
2022-11-28T03:39:32.904Z,8.85
2022-11-28T03:42:03.953Z,8.48
2022-11-28T03:44:33.316Z,10.70
2022-11-28T03:47:01.887Z,8.73
2022-11-28T03:49:34.049Z,10.05
2022-11-28T03:52:03.559Z,9.73
2022-11-28T03:54:35.331Z,10.48
2022-11-28T03:57:07.889Z,11.20
2022-11-28T03:59:36.813Z,12.05
2022-11-28T04:02:08.332Z,12.07
2022-11-28T04:04:41.787Z,12.00
2022-11-28T04:07:17.346Z,13.05
2022-11-28T04:12:21.094Z,11.68
2022-11-28T04:14:50.232Z,11.68
2022-11-28T04:17:19.381Z,11.55
2022-11-28T04:19:51.491Z,13.60
2022-11-28T04:22:20.721Z,10.95
2022-11-28T04:24:51.133Z,11.93
2022-11-28T04:27:20.736Z,11.68
2022-11-28T04:29:49.673Z,13.43
2022-11-28T04:32:19.171Z,12.50
2022-11-28T04:34:48.583Z,13.25
2022-11-28T04:37:17.692Z,12.95
2022-11-28T04:39:48.017Z,12.90
2022-11-28T04:42:17.614Z,11.88
2022-11-28T04:44:48.293Z,12.45
2022-11-28T04:47:16.598Z,13.07
2022-11-28T04:49:44.243Z,10.93
2022-11-28T04:52:15.446Z,12.32
2022-11-28T04:54:47.778Z,13.48
2022-11-28T04:57:16.780Z,12.45
2022-11-28T04:59:44.959Z,12.05
2022-11-28T05:02:14.464Z,13.07
2022-11-28T05:04:44.486Z,14.38
2022-11-28T05:07:12.577Z,14.15
2022-11-28T05:09:40.327Z,14.38
2022-11-28T05:12:09.601Z,12.75
2022-11-28T05:14:37.152Z,14.45
2022-11-28T05:17:04.730Z,12.95
2022-11-28T05:19:32.359Z,12.80
2022-11-28T05:22:00.269Z,14.20
2022-11-28T05:24:32.176Z,11.75
2022-11-28T05:27:00.772Z,12.95
2022-11-28T05:29:29.830Z,11.05
2022-11-28T05:31:57.501Z,11.50
2022-11-28T05:34:25.194Z,9.40
2022-11-28T05:36:52.788Z,9.20
2022-11-28T05:39:20.535Z,8.43
2022-11-28T05:41:48.140Z,7.45
2022-11-28T05:44:15.826Z,7.28
2022-11-28T05:46:44.774Z,8.52
2022-11-28T05:49:12.433Z,7.65
2022-11-28T05:51:40.137Z,7.78
2022-11-28T05:54:07.900Z,8.45
2022-11-28T05:56:42.105Z,9.05
2022-11-28T05:59:10.028Z,8.57
2022-11-28T06:01:37.639Z,8.57
2022-11-28T06:04:06.802Z,8.65
2022-11-28T06:06:35.387Z,9.00
2022-11-28T06:09:05.294Z,8.25
2022-11-28T06:11:34.171Z,9.27
2022-11-28T06:14:03.009Z,8.25
2022-11-28T06:16:31.785Z,10.75
2022-11-28T06:19:00.232Z,11.50
2022-11-28T06:21:29.615Z,11.38
2022-11-28T06:23:57.568Z,9.90
2022-11-28T06:26:25.876Z,10.43
2022-11-28T06:28:55.488Z,9.43
2022-11-28T06:31:24.323Z,9.90
2022-11-28T06:33:52.410Z,10.23
2022-11-28T06:36:20.291Z,9.93
2022-11-28T06:38:49.496Z,10.25
2022-11-28T06:41:20.412Z,9.50
2022-11-28T06:43:48.250Z,9.68
2022-11-28T06:46:17.386Z,10.55
2022-11-28T06:48:45.167Z,11.43
2022-11-28T06:51:13.200Z,10.88
2022-11-28T06:53:41.269Z,11.75
2022-11-28T06:56:11.731Z,11.02
2022-11-28T06:58:39.360Z,11.10
2022-11-28T07:01:08.181Z,10.68
2022-11-28T07:03:36.108Z,12.20
2022-11-28T07:06:04.079Z,12.27
2022-11-28T07:08:32.065Z,11.77
2022-11-28T07:10:59.801Z,14.02
2022-11-28T07:13:28.785Z,10.07
2022-11-28T07:15:56.360Z,11.35
2022-11-28T07:18:24.644Z,11.90
2022-11-28T07:20:52.396Z,12.07
2022-11-28T07:23:20.212Z,13.65
2022-11-28T07:25:47.831Z,13.48
2022-11-28T07:28:16.832Z,12.95
2022-11-28T07:30:48.409Z,11.98
2022-11-28T07:33:17.153Z,12.35
2022-11-28T07:35:44.795Z,12.38
2022-11-28T07:38:12.547Z,11.23
2022-11-28T07:40:40.188Z,10.35
2022-11-28T07:43:07.767Z,11.30
2022-11-28T07:45:58.921Z,11.35
2022-11-28T07:48:24.410Z,12.05
2022-11-28T07:50:52.096Z,10.95
2022-11-28T07:53:19.947Z,11.55
2022-11-28T07:55:47.782Z,12.02
2022-11-28T07:58:15.394Z,13.95
2022-11-28T08:00:43.039Z,13.45
2022-11-28T08:03:11.072Z,13.07
2022-11-28T08:05:40.013Z,12.50
2022-11-28T08:08:07.774Z,12.88
2022-11-28T08:10:35.584Z,12.10
2022-11-28T08:13:03.229Z,11.70
2022-11-28T08:15:32.115Z,12.30
2022-11-28T08:17:59.717Z,12.25
2022-11-28T08:20:27.349Z,11.57
2022-11-28T08:22:56.329Z,10.07
2022-11-28T08:25:24.078Z,10.52
2022-11-28T08:27:51.657Z,12.77
2022-11-28T08:30:19.370Z,11.43
2022-11-28T08:32:46.987Z,11.98
2022-11-28T08:35:14.551Z,11.27
2022-11-28T08:37:42.204Z,11.20
2022-11-28T08:40:11.478Z,10.70
2022-11-28T08:42:39.150Z,11.32
2022-11-28T08:45:07.906Z,11.40
2022-11-28T08:47:35.551Z,10.70
2022-11-28T08:50:03.334Z,10.98
2022-11-28T08:52:30.932Z,12.10
2022-11-28T08:54:58.512Z,11.93
2022-11-28T08:57:27.451Z,10.68
2022-11-28T08:59:55.090Z,12.15
2022-11-28T09:02:25.917Z,12.30
2022-11-28T09:04:54.978Z,11.50
2022-11-28T09:07:22.624Z,13.23
2022-11-28T09:09:50.255Z,11.95
2022-11-28T09:12:17.872Z,11.25
2022-11-28T09:14:46.905Z,13.23
2022-11-28T09:17:15.824Z,11.48
2022-11-28T09:19:44.037Z,12.43
2022-11-28T09:22:11.941Z,12.07
2022-11-28T09:24:39.766Z,10.50
2022-11-28T09:27:07.433Z,11.40
2022-11-28T09:29:35.084Z,11.57
2022-11-28T09:32:04.040Z,12.88
2022-11-28T09:34:31.779Z,11.55
2022-11-28T09:37:04.621Z,13.20
2022-11-28T09:39:43.903Z,11.32
2022-11-28T09:42:23.386Z,12.43
2022-11-28T09:44:52.845Z,11.60
2022-11-28T09:47:23.773Z,10.63
2022-11-28T09:49:53.574Z,12.27
2022-11-28T09:52:27.596Z,11.75
2022-11-28T09:54:59.606Z,10.05
2022-11-28T09:57:31.015Z,11.27
2022-11-28T09:59:58.649Z,10.88
2022-11-28T10:02:33.643Z,10.32
2022-11-28T10:05:07.490Z,10.40
2022-11-28T10:07:42.255Z,9.98
2022-11-28T10:10:13.576Z,11.02
2022-11-28T10:12:45.133Z,11.45
2022-11-28T10:15:21.217Z,10.48
2022-11-28T10:17:54.181Z,10.98
2022-11-28T10:20:23.733Z,10.68
2022-11-28T10:22:53.037Z,13.25
2022-11-28T10:25:22.757Z,12.38
2022-11-28T10:27:51.051Z,11.93
2022-11-28T10:30:23.856Z,11.80
2022-11-28T10:33:02.839Z,11.75
2022-11-28T10:35:34.688Z,11.85
2022-11-28T10:38:02.369Z,12.07
2022-11-28T10:40:35.924Z,12.02
2022-11-28T10:43:04.638Z,12.05
2022-11-28T10:45:37.974Z,11.38
2022-11-28T10:48:39.661Z,12.05
2022-11-28T10:51:22.774Z,11.77
2022-11-28T10:54:09.708Z,10.30
2022-11-28T10:57:02.857Z,10.25
2022-11-28T10:59:52.914Z,10.93
2022-11-28T11:02:22.057Z,9.65
2022-11-28T11:07:32.121Z,11.02
2022-11-28T11:10:03.653Z,11.98
2022-11-28T11:12:32.510Z,11.23
2022-11-28T11:15:00.250Z,10.43
2022-11-28T11:17:41.071Z,10.25
2022-11-28T11:20:30.207Z,10.32
2022-11-28T11:22:59.245Z,9.75
2022-11-28T11:25:29.524Z,9.38
2022-11-28T11:28:05.285Z,9.88
2022-11-28T11:30:38.824Z,10.75
2022-11-28T11:33:07.680Z,10.20
2022-11-28T11:35:38.841Z,9.30
2022-11-28T11:38:17.637Z,9.13
2022-11-28T11:40:46.663Z,9.32
2022-11-28T11:43:29.343Z,8.77
2022-11-28T11:46:07.370Z,8.18
2022-11-28T11:48:36.273Z,10.13
2022-11-28T11:51:03.915Z,10.15
2022-11-28T11:53:31.655Z,10.30
2022-11-28T11:56:02.232Z,9.55
2022-11-28T11:58:34.437Z,10.27
2022-11-28T12:01:02.290Z,9.48
2022-11-28T12:03:32.587Z,9.65
2022-11-28T12:06:17.851Z,7.63
2022-11-28T12:08:49.189Z,8.68
2022-11-28T12:11:21.463Z,9.27
2022-11-28T12:13:51.003Z,9.15
2022-11-28T12:16:27.511Z,8.20
2022-11-28T12:19:00.668Z,8.93
2022-11-28T12:21:32.694Z,9.85
2022-11-28T12:24:06.337Z,7.53
2022-11-28T12:26:40.786Z,7.32
2022-11-28T12:29:17.134Z,9.97
2022-11-28T12:31:48.302Z,7.13
2022-11-28T12:34:20.687Z,7.85
2022-11-28T12:36:53.633Z,7.93
2022-11-28T12:39:27.373Z,7.15
2022-11-28T12:42:09.596Z,7.40
2022-11-28T12:44:43.919Z,8.15
2022-11-28T12:47:15.967Z,8.27
2022-11-28T12:49:47.939Z,7.88
2022-11-28T12:52:19.592Z,7.93
2022-11-28T12:54:53.277Z,8.70
2022-11-28T12:57:26.350Z,8.82
2022-11-28T13:00:05.025Z,10.38
2022-11-28T13:02:40.381Z,7.82
2022-11-28T13:05:15.986Z,9.32
2022-11-28T13:07:47.800Z,8.90
2022-11-28T13:10:18.684Z,9.50
2022-11-28T13:12:52.098Z,9.70
2022-11-28T13:15:23.101Z,9.73
2022-11-28T13:17:55.164Z,10.07
2022-11-28T13:20:26.565Z,8.57
2022-11-28T13:23:00.146Z,9.68
2022-11-28T13:25:32.372Z,10.15
2022-11-28T13:28:06.314Z,8.35
2022-11-28T13:30:37.882Z,9.30
2022-11-28T13:33:08.649Z,9.85
2022-11-28T13:35:36.425Z,7.95
2022-11-28T13:40:57.298Z,8.57
2022-11-28T13:43:34.099Z,7.95
2022-11-28T13:46:09.809Z,7.78
2022-11-28T13:49:14.357Z,8.20
2022-11-28T13:51:57.050Z,8.30
2022-11-28T13:54:44.305Z,8.45
2022-11-28T14:00:30.326Z,7.32
2022-11-28T14:03:27.146Z,7.88
2022-11-28T14:09:20.299Z,8.80
2022-11-28T14:15:03.991Z,7.57
2022-11-28T14:17:42.465Z,8.38
2022-11-28T14:20:16.660Z,7.05
2022-11-28T14:22:50.511Z,6.65
2022-11-28T14:25:33.723Z,7.68
2022-11-28T14:28:03.993Z,6.50
2022-11-28T14:30:46.894Z,5.70
2022-11-28T14:33:21.007Z,7.88
2022-11-28T14:36:03.439Z,6.95
2022-11-28T14:38:46.831Z,5.28
2022-11-28T14:44:23.870Z,5.40
2022-11-28T14:47:22.086Z,5.88
2022-11-28T14:50:04.238Z,6.65
2022-11-28T14:52:40.545Z,5.78
2022-11-28T14:55:17.100Z,4.80
2022-11-28T14:57:54.054Z,5.65
2022-11-28T15:00:25.270Z,4.47
2022-11-28T15:03:07.946Z,5.65
2022-11-28T15:05:42.758Z,5.13
2022-11-28T15:08:31.045Z,5.80
2022-11-28T15:11:04.879Z,6.80
2022-11-28T15:13:39.172Z,6.03
2022-11-28T15:16:07.900Z,4.82
2022-11-28T15:18:36.265Z,4.95
2022-11-28T15:21:07.545Z,5.50
2022-11-28T15:23:36.215Z,5.28
2022-11-28T15:26:04.250Z,5.18
2022-11-28T15:28:35.628Z,6.03
2022-11-28T15:31:04.764Z,5.68
2022-11-28T15:33:33.664Z,7.13
2022-11-28T15:36:16.435Z,5.65
2022-11-28T15:38:50.105Z,6.13
2022-11-28T15:41:22.821Z,5.78
2022-11-28T15:43:51.496Z,5.95
2022-11-28T15:49:07.293Z,5.78
2022-11-28T15:51:51.097Z,4.97
2022-11-28T15:54:27.929Z,6.35
2022-11-28T15:56:58.719Z,6.07
2022-11-28T15:59:26.862Z,6.90
2022-11-28T16:01:59.205Z,6.45
2022-11-28T16:04:27.441Z,6.30
2022-11-28T16:06:57.426Z,6.30
2022-11-28T16:09:30.341Z,6.53
2022-11-28T16:11:58.038Z,6.82
2022-11-28T16:14:27.705Z,7.55
2022-11-28T16:16:59.344Z,8.98
2022-11-28T16:19:28.906Z,7.40
2022-11-28T16:22:11.711Z,7.07
2022-11-28T16:27:30.708Z,8.00
2022-11-28T16:30:02.196Z,7.03
2022-11-28T16:32:38.102Z,7.53
2022-11-28T16:35:06.816Z,10.15
2022-11-28T16:37:34.528Z,8.02
2022-11-28T16:40:15.861Z,8.50
2022-11-28T16:42:46.182Z,7.75
2022-11-28T16:45:17.851Z,7.50
2022-11-28T16:47:46.492Z,8.02
2022-11-28T16:50:21.324Z,9.50
2022-11-28T16:52:49.801Z,7.95
2022-11-28T16:55:36.060Z,8.57
2022-11-28T16:58:12.048Z,8.00
2022-11-28T17:03:49.472Z,8.50
2022-11-28T17:07:00.558Z,8.15
2022-11-28T17:09:29.590Z,10.07
2022-11-28T17:12:12.303Z,7.57
2022-11-28T17:14:52.034Z,8.70
2022-11-28T17:17:21.291Z,7.90
2022-11-28T17:19:49.737Z,10.05
2022-11-28T17:25:21.843Z,12.05
2022-11-28T17:27:51.785Z,13.35
2022-11-28T17:30:21.123Z,14.07
2022-11-28T17:33:10.639Z,11.55
2022-11-28T17:35:43.014Z,9.73
2022-11-28T17:38:10.675Z,9.00
2022-11-28T17:40:52.410Z,9.25
2022-11-28T17:43:23.371Z,9.80
2022-11-28T17:45:52.984Z,11.60
2022-11-28T17:48:20.867Z,14.57
2022-11-28T17:53:35.791Z,11.55
2022-11-28T17:56:03.868Z,10.43
2022-11-28T17:58:32.882Z,10.45
2022-11-28T18:01:02.007Z,9.93
2022-11-28T18:03:30.159Z,8.65
2022-11-28T18:05:57.779Z,9.70
2022-11-28T18:08:25.455Z,10.25
2022-11-28T18:11:03.118Z,10.23
2022-11-28T18:13:30.783Z,10.80
2022-11-28T18:15:58.432Z,9.63
2022-11-28T18:18:27.772Z,11.18
2022-11-28T18:20:55.476Z,11.10
2022-11-28T18:23:23.096Z,14.50
2022-11-28T18:25:50.731Z,12.73
2022-11-28T18:28:19.219Z,11.98
2022-11-28T18:30:47.784Z,10.57
2022-11-28T18:33:16.047Z,11.60
2022-11-28T18:35:45.098Z,13.07
2022-11-28T18:38:12.793Z,11.20
2022-11-28T18:40:40.476Z,10.85
2022-11-28T18:43:08.124Z,10.93
2022-11-28T18:45:36.330Z,11.18
2022-11-28T18:48:04.024Z,13.60
2022-11-28T18:50:31.757Z,13.50
2022-11-28T18:53:02.005Z,10.70
2022-11-28T18:55:29.607Z,11.77
2022-11-28T18:57:57.235Z,12.10
2022-11-28T19:00:24.902Z,11.68
2022-11-28T19:02:53.212Z,11.80
2022-11-28T19:05:20.892Z,13.70
2022-11-28T19:07:48.568Z,12.15
2022-11-28T19:10:17.917Z,13.25
2022-11-28T19:12:45.535Z,12.82
2022-11-28T19:15:13.458Z,11.82
2022-11-28T19:17:41.079Z,13.75
2022-11-28T19:20:09.904Z,19.30
2022-11-28T19:22:37.558Z,14.40
2022-11-28T19:25:05.618Z,11.25
2022-11-28T19:27:34.602Z,12.10
2022-11-28T19:30:02.280Z,12.93
2022-11-28T19:32:29.907Z,13.15
2022-11-28T19:34:57.528Z,13.15
2022-11-28T19:37:25.417Z,13.90
2022-11-28T19:39:53.040Z,12.95
2022-11-28T19:42:20.980Z,11.60
2022-11-28T19:44:50.016Z,13.27
2022-11-28T19:47:17.642Z,13.85
2022-11-28T19:49:45.682Z,13.63
2022-11-28T19:52:13.531Z,14.55
2022-11-28T19:54:41.582Z,13.05
2022-11-28T19:57:11.312Z,14.35
2022-11-28T19:59:38.940Z,14.02
2022-11-28T20:02:07.979Z,14.45
2022-11-28T20:04:35.718Z,14.55
2022-11-28T20:07:03.393Z,13.38
2022-11-28T20:09:31.168Z,15.35
2022-11-28T20:11:58.878Z,13.13
2022-11-28T20:14:32.666Z,14.95
2022-11-28T20:17:00.968Z,15.27
2022-11-28T20:19:30.058Z,13.73
2022-11-28T20:21:58.633Z,14.27
2022-11-28T20:24:26.300Z,13.18
2022-11-28T20:26:54.221Z,14.02
2022-11-28T20:29:26.635Z,14.10
2022-11-28T20:31:54.618Z,15.18
2022-11-28T20:34:22.354Z,11.52
2022-11-28T20:36:53.664Z,11.57
2022-11-28T20:39:21.738Z,13.77
2022-11-28T20:41:49.688Z,13.18
2022-11-28T20:44:17.792Z,12.82
2022-11-28T20:46:46.381Z,12.18
2022-11-28T20:49:15.111Z,12.23
2022-11-28T20:51:43.097Z,13.50
2022-11-28T20:54:12.896Z,12.43
2022-11-28T20:57:12.830Z,11.85
2022-11-28T20:59:29.615Z,13.50
2022-11-28T21:01:57.389Z,21.85
2022-11-28T21:04:25.027Z,26.75
2022-11-28T21:06:52.680Z,13.32
2022-11-28T21:09:21.629Z,27.55
2022-11-28T21:11:57.339Z,10.25
2022-11-28T21:14:26.125Z,9.02
2022-11-28T21:16:53.899Z,10.75
2022-11-28T21:19:21.861Z,13.20
2022-11-28T21:21:49.657Z,13.77
2022-11-28T21:24:17.516Z,43.75
2022-11-28T21:26:51.272Z,28.48
2022-11-28T21:29:21.633Z,26.90
2022-11-28T21:31:49.579Z,13.20
2022-11-28T21:34:19.057Z,22.92
2022-11-28T21:36:47.093Z,24.50
2022-11-28T21:39:15.617Z,18.10
2022-11-28T21:41:43.409Z,16.10
2022-11-28T21:44:12.403Z,14.30
2022-11-28T21:46:40.204Z,13.95
2022-11-28T21:49:07.791Z,14.25
2022-11-28T21:51:35.620Z,38.88
2022-11-28T21:54:03.265Z,13.60
2022-11-28T21:56:30.894Z,13.07
2022-11-28T21:58:58.514Z,13.02
2022-11-28T22:01:27.538Z,14.05
2022-11-28T22:04:00.602Z,11.25
2022-11-28T22:06:30.085Z,12.20
2022-11-28T22:08:57.940Z,12.35
2022-11-28T22:11:25.685Z,12.35
2022-11-28T22:13:53.620Z,19.83
2022-11-28T22:16:23.032Z,11.48
2022-11-28T22:18:52.953Z,13.75
2022-11-28T22:24:09.037Z,13.25
2022-11-28T22:26:36.904Z,18.20
2022-11-28T22:29:04.971Z,27.92
2022-11-28T22:31:32.752Z,21.88
2022-11-28T22:34:01.883Z,15.18
2022-11-28T22:36:29.920Z,18.98
2022-11-28T22:38:58.515Z,17.10
2022-11-28T22:41:29.264Z,14.40
2022-11-28T22:43:59.201Z,13.45
2022-11-28T22:46:26.927Z,12.25
2022-11-28T22:48:54.603Z,20.90
2022-11-28T22:51:24.729Z,22.50
2022-11-28T22:53:53.521Z,29.92
2022-11-28T22:56:21.380Z,14.05
2022-11-28T22:58:49.001Z,12.07
2022-11-28T23:01:17.417Z,15.18
2022-11-28T23:03:45.259Z,12.65
2022-11-28T23:06:14.328Z,15.18
2022-11-28T23:08:43.664Z,13.10
2022-11-28T23:11:12.343Z,12.75
2022-11-28T23:13:40.508Z,12.52
2022-11-28T23:16:12.219Z,14.02
2022-11-28T23:18:39.938Z,17.80
2022-11-28T23:21:08.099Z,12.95
2022-11-28T23:23:36.263Z,28.35
2022-11-28T23:26:06.492Z,21.35
2022-11-28T23:28:34.428Z,18.52
2022-11-28T23:31:05.553Z,16.55
2022-11-28T23:33:33.479Z,16.67
2022-11-28T23:36:01.115Z,21.30
2022-11-28T23:38:28.761Z,33.70
2022-11-28T23:40:56.922Z,22.73
2022-11-28T23:43:25.904Z,12.43
2022-11-28T23:45:53.583Z,11.32
2022-11-28T23:48:21.264Z,12.40
2022-11-28T23:50:48.956Z,15.10
2022-11-28T23:53:16.602Z,12.88
2022-11-28T23:55:44.204Z,10.90
2022-11-28T23:58:11.791Z,13.18
